sensor_id;sensor_type;location;lat;lon;timestamp;P1;durP1;ratioP1;P2;durP2;ratioP2
19846;SDS011;10084;50.518;8.588;2023-11-19T00:00:18;0.80;;;0.50;;
19846;SDS011;10084;50.518;8.588;2023-11-19T00:02:44;0.60;;;0.60;;
19846;SDS011;10084;50.518;8.588;2023-11-19T00:05:10;0.60;;;0.40;;
19846;SDS011;10084;50.518;8.588;2023-11-19T00:07:39;0.60;;;0.27;;
19846;SDS011;10084;50.518;8.588;2023-11-19T00:10:09;0.90;;;0.30;;
19846;SDS011;10084;50.518;8.588;2023-11-19T00:12:38;0.30;;;0.30;;
19846;SDS011;10084;50.518;8.588;2023-11-19T00:15:09;0.63;;;0.53;;
19846;SDS011;10084;50.518;8.588;2023-11-19T00:17:37;0.67;;;0.40;;
19846;SDS011;10084;50.518;8.588;2023-11-19T00:20:05;0.37;;;0.30;;
19846;SDS011;10084;50.518;8.588;2023-11-19T00:22:32;0.50;;;0.50;;
19846;SDS011;10084;50.518;8.588;2023-11-19T00:24:58;0.70;;;0.70;;
19846;SDS011;10084;50.518;8.588;2023-11-19T00:27:24;2.83;;;0.70;;
19846;SDS011;10084;50.518;8.588;2023-11-19T00:29:51;1.13;;;0.60;;
19846;SDS011;10084;50.518;8.588;2023-11-19T00:32:16;0.60;;;0.60;;
19846;SDS011;10084;50.518;8.588;2023-11-19T00:34:43;0.97;;;0.67;;
19846;SDS011;10084;50.518;8.588;2023-11-19T00:37:09;1.33;;;0.90;;
19846;SDS011;10084;50.518;8.588;2023-11-19T00:39:35;2.50;;;0.70;;
19846;SDS011;10084;50.518;8.588;2023-11-19T00:42:01;1.03;;;0.70;;
19846;SDS011;10084;50.518;8.588;2023-11-19T00:44:27;0.93;;;0.70;;
19846;SDS011;10084;50.518;8.588;2023-11-19T00:46:52;1.30;;;0.90;;
19846;SDS011;10084;50.518;8.588;2023-11-19T00:49:18;0.60;;;0.50;;
19846;SDS011;10084;50.518;8.588;2023-11-19T00:51:43;0.70;;;0.40;;
19846;SDS011;10084;50.518;8.588;2023-11-19T00:54:10;0.60;;;0.60;;
19846;SDS011;10084;50.518;8.588;2023-11-19T00:56:36;0.70;;;0.50;;
19846;SDS011;10084;50.518;8.588;2023-11-19T00:59:02;0.53;;;0.30;;
19846;SDS011;10084;50.518;8.588;2023-11-19T01:01:29;0.67;;;0.57;;
19846;SDS011;10084;50.518;8.588;2023-11-19T01:03:55;0.70;;;0.47;;
19846;SDS011;10084;50.518;8.588;2023-11-19T01:06:32;0.67;;;0.50;;
19846;SDS011;10084;50.518;8.588;2023-11-19T01:08:57;0.40;;;0.40;;
19846;SDS011;10084;50.518;8.588;2023-11-19T01:11:24;1.60;;;0.57;;
19846;SDS011;10084;50.518;8.588;2023-11-19T01:13:50;1.07;;;0.80;;
19846;SDS011;10084;50.518;8.588;2023-11-19T01:16:16;1.10;;;0.80;;
19846;SDS011;10084;50.518;8.588;2023-11-19T01:18:42;0.67;;;0.67;;
19846;SDS011;10084;50.518;8.588;2023-11-19T01:21:09;1.30;;;0.87;;
19846;SDS011;10084;50.518;8.588;2023-11-19T01:23:35;0.90;;;0.90;;
19846;SDS011;10084;50.518;8.588;2023-11-19T01:26:02;0.97;;;0.80;;
19846;SDS011;10084;50.518;8.588;2023-11-19T01:28:28;0.60;;;0.60;;
19846;SDS011;10084;50.518;8.588;2023-11-19T01:30:56;1.27;;;0.60;;
19846;SDS011;10084;50.518;8.588;2023-11-19T01:33:22;0.97;;;0.90;;
19846;SDS011;10084;50.518;8.588;2023-11-19T01:35:47;0.90;;;0.90;;
19846;SDS011;10084;50.518;8.588;2023-11-19T01:38:13;0.50;;;0.50;;
19846;SDS011;10084;50.518;8.588;2023-11-19T01:40:39;0.87;;;0.77;;
19846;SDS011;10084;50.518;8.588;2023-11-19T01:43:05;0.63;;;0.63;;
19846;SDS011;10084;50.518;8.588;2023-11-19T01:45:31;0.53;;;0.50;;
19846;SDS011;10084;50.518;8.588;2023-11-19T01:47:58;1.50;;;0.43;;
19846;SDS011;10084;50.518;8.588;2023-11-19T01:50:26;0.77;;;0.60;;
19846;SDS011;10084;50.518;8.588;2023-11-19T01:52:52;1.13;;;1.03;;
19846;SDS011;10084;50.518;8.588;2023-11-19T01:55:19;0.83;;;0.83;;
19846;SDS011;10084;50.518;8.588;2023-11-19T01:57:46;0.97;;;0.83;;
19846;SDS011;10084;50.518;8.588;2023-11-19T02:00:13;0.50;;;0.50;;
19846;SDS011;10084;50.518;8.588;2023-11-19T02:02:42;0.13;;;0.10;;
19846;SDS011;10084;50.518;8.588;2023-11-19T02:05:12;0.37;;;0.37;;
19846;SDS011;10084;50.518;8.588;2023-11-19T02:07:39;0.50;;;0.50;;
19846;SDS011;10084;50.518;8.588;2023-11-19T02:10:05;0.00;;;0.00;;
19846;SDS011;10084;50.518;8.588;2023-11-19T02:12:32;0.10;;;0.10;;
19846;SDS011;10084;50.518;8.588;2023-11-19T02:15:02;0.00;;;0.00;;
19846;SDS011;10084;50.518;8.588;2023-11-19T02:17:28;0.00;;;0.00;;
19846;SDS011;10084;50.518;8.588;2023-11-19T02:19:59;0.00;;;0.00;;
19846;SDS011;10084;50.518;8.588;2023-11-19T02:22:33;0.20;;;0.00;;
19846;SDS011;10084;50.518;8.588;2023-11-19T02:25:00;0.10;;;0.10;;
19846;SDS011;10084;50.518;8.588;2023-11-19T02:27:31;0.00;;;0.00;;
19846;SDS011;10084;50.518;8.588;2023-11-19T02:30:05;0.00;;;0.00;;
19846;SDS011;10084;50.518;8.588;2023-11-19T02:32:34;0.00;;;0.00;;
19846;SDS011;10084;50.518;8.588;2023-11-19T02:35:01;0.20;;;0.20;;
19846;SDS011;10084;50.518;8.588;2023-11-19T02:37:27;0.00;;;0.00;;
19846;SDS011;10084;50.518;8.588;2023-11-19T02:39:53;0.00;;;0.00;;
19846;SDS011;10084;50.518;8.588;2023-11-19T02:42:19;0.10;;;0.10;;
19846;SDS011;10084;50.518;8.588;2023-11-19T02:44:45;0.00;;;0.00;;
19846;SDS011;10084;50.518;8.588;2023-11-19T02:47:11;0.00;;;0.00;;
19846;SDS011;10084;50.518;8.588;2023-11-19T02:49:37;0.10;;;0.10;;
19846;SDS011;10084;50.518;8.588;2023-11-19T02:52:03;0.03;;;0.03;;
19846;SDS011;10084;50.518;8.588;2023-11-19T02:54:31;3.73;;;0.03;;
19846;SDS011;10084;50.518;8.588;2023-11-19T02:57:00;0.00;;;0.00;;
19846;SDS011;10084;50.518;8.588;2023-11-19T02:59:28;0.10;;;0.10;;
19846;SDS011;10084;50.518;8.588;2023-11-19T03:02:04;0.00;;;0.00;;
19846;SDS011;10084;50.518;8.588;2023-11-19T03:04:32;0.00;;;0.00;;
19846;SDS011;10084;50.518;8.588;2023-11-19T03:06:58;0.00;;;0.00;;
19846;SDS011;10084;50.518;8.588;2023-11-19T03:09:24;0.10;;;0.00;;
19846;SDS011;10084;50.518;8.588;2023-11-19T03:11:50;0.00;;;0.00;;
19846;SDS011;10084;50.518;8.588;2023-11-19T03:14:16;0.00;;;0.00;;
19846;SDS011;10084;50.518;8.588;2023-11-19T03:16:44;0.00;;;0.00;;
19846;SDS011;10084;50.518;8.588;2023-11-19T03:19:11;0.00;;;0.00;;
19846;SDS011;10084;50.518;8.588;2023-11-19T03:21:37;0.03;;;0.03;;
19846;SDS011;10084;50.518;8.588;2023-11-19T03:24:03;0.00;;;0.00;;
19846;SDS011;10084;50.518;8.588;2023-11-19T03:26:29;0.00;;;0.00;;
19846;SDS011;10084;50.518;8.588;2023-11-19T03:28:55;0.00;;;0.00;;
19846;SDS011;10084;50.518;8.588;2023-11-19T03:31:22;0.00;;;0.00;;
19846;SDS011;10084;50.518;8.588;2023-11-19T03:33:48;0.00;;;0.00;;
19846;SDS011;10084;50.518;8.588;2023-11-19T03:36:13;0.00;;;0.00;;
19846;SDS011;10084;50.518;8.588;2023-11-19T03:38:42;0.20;;;0.00;;
19846;SDS011;10084;50.518;8.588;2023-11-19T03:41:11;0.00;;;0.00;;
19846;SDS011;10084;50.518;8.588;2023-11-19T03:43:41;0.30;;;0.00;;
19846;SDS011;10084;50.518;8.588;2023-11-19T03:46:18;0.10;;;0.00;;
19846;SDS011;10084;50.518;8.588;2023-11-19T03:48:45;0.00;;;0.00;;
19846;SDS011;10084;50.518;8.588;2023-11-19T03:51:14;0.00;;;0.00;;
19846;SDS011;10084;50.518;8.588;2023-11-19T03:53:47;0.00;;;0.00;;
19846;SDS011;10084;50.518;8.588;2023-11-19T03:56:12;0.00;;;0.00;;
19846;SDS011;10084;50.518;8.588;2023-11-19T03:58:38;0.10;;;0.00;;
19846;SDS011;10084;50.518;8.588;2023-11-19T04:01:05;0.00;;;0.00;;
19846;SDS011;10084;50.518;8.588;2023-11-19T04:03:31;0.87;;;0.20;;
19846;SDS011;10084;50.518;8.588;2023-11-19T04:05:58;0.00;;;0.00;;
19846;SDS011;10084;50.518;8.588;2023-11-19T04:08:24;0.00;;;0.00;;
19846;SDS011;10084;50.518;8.588;2023-11-19T04:10:49;0.00;;;0.00;;
19846;SDS011;10084;50.518;8.588;2023-11-19T04:13:15;0.00;;;0.00;;
19846;SDS011;10084;50.518;8.588;2023-11-19T04:15:41;0.00;;;0.00;;
19846;SDS011;10084;50.518;8.588;2023-11-19T04:18:08;0.10;;;0.10;;
19846;SDS011;10084;50.518;8.588;2023-11-19T04:20:34;0.00;;;0.00;;
19846;SDS011;10084;50.518;8.588;2023-11-19T04:23:00;0.10;;;0.00;;
19846;SDS011;10084;50.518;8.588;2023-11-19T04:25:26;0.00;;;0.00;;
19846;SDS011;10084;50.518;8.588;2023-11-19T04:27:51;0.00;;;0.00;;
19846;SDS011;10084;50.518;8.588;2023-11-19T04:30:17;0.00;;;0.00;;
19846;SDS011;10084;50.518;8.588;2023-11-19T04:32:47;0.00;;;0.00;;
19846;SDS011;10084;50.518;8.588;2023-11-19T04:35:15;0.00;;;0.00;;
19846;SDS011;10084;50.518;8.588;2023-11-19T04:37:42;0.03;;;0.03;;
19846;SDS011;10084;50.518;8.588;2023-11-19T04:40:07;0.10;;;0.00;;
19846;SDS011;10084;50.518;8.588;2023-11-19T04:42:34;0.00;;;0.00;;
19846;SDS011;10084;50.518;8.588;2023-11-19T04:45:00;0.00;;;0.00;;
19846;SDS011;10084;50.518;8.588;2023-11-19T04:47:26;0.00;;;0.00;;
19846;SDS011;10084;50.518;8.588;2023-11-19T04:49:51;0.00;;;0.00;;
19846;SDS011;10084;50.518;8.588;2023-11-19T04:52:17;0.00;;;0.00;;
19846;SDS011;10084;50.518;8.588;2023-11-19T04:54:43;0.00;;;0.00;;
19846;SDS011;10084;50.518;8.588;2023-11-19T04:57:09;0.00;;;0.00;;
19846;SDS011;10084;50.518;8.588;2023-11-19T04:59:38;0.00;;;0.00;;
19846;SDS011;10084;50.518;8.588;2023-11-19T05:02:04;0.10;;;0.10;;
19846;SDS011;10084;50.518;8.588;2023-11-19T05:04:30;0.00;;;0.00;;
19846;SDS011;10084;50.518;8.588;2023-11-19T05:06:56;0.00;;;0.00;;
19846;SDS011;10084;50.518;8.588;2023-11-19T05:09:22;0.00;;;0.00;;
19846;SDS011;10084;50.518;8.588;2023-11-19T05:11:48;0.00;;;0.00;;
19846;SDS011;10084;50.518;8.588;2023-11-19T05:14:14;0.00;;;0.00;;
19846;SDS011;10084;50.518;8.588;2023-11-19T05:16:40;0.00;;;0.00;;
19846;SDS011;10084;50.518;8.588;2023-11-19T05:19:06;0.00;;;0.00;;
19846;SDS011;10084;50.518;8.588;2023-11-19T05:21:32;0.00;;;0.00;;
19846;SDS011;10084;50.518;8.588;2023-11-19T05:23:58;0.00;;;0.00;;
19846;SDS011;10084;50.518;8.588;2023-11-19T05:26:24;0.00;;;0.00;;
19846;SDS011;10084;50.518;8.588;2023-11-19T05:28:50;0.10;;;0.10;;
19846;SDS011;10084;50.518;8.588;2023-11-19T05:31:16;0.00;;;0.00;;
19846;SDS011;10084;50.518;8.588;2023-11-19T05:33:43;0.30;;;0.10;;
19846;SDS011;10084;50.518;8.588;2023-11-19T05:36:10;0.30;;;0.30;;
19846;SDS011;10084;50.518;8.588;2023-11-19T05:38:37;0.13;;;0.10;;
19846;SDS011;10084;50.518;8.588;2023-11-19T05:41:03;0.10;;;0.10;;
19846;SDS011;10084;50.518;8.588;2023-11-19T05:43:30;0.40;;;0.40;;
19846;SDS011;10084;50.518;8.588;2023-11-19T05:45:56;0.83;;;0.83;;
19846;SDS011;10084;50.518;8.588;2023-11-19T05:48:22;0.67;;;0.67;;
19846;SDS011;10084;50.518;8.588;2023-11-19T05:50:48;0.97;;;0.97;;
19846;SDS011;10084;50.518;8.588;2023-11-19T05:53:15;0.50;;;0.50;;
19846;SDS011;10084;50.518;8.588;2023-11-19T05:55:41;0.30;;;0.30;;
19846;SDS011;10084;50.518;8.588;2023-11-19T05:58:15;0.10;;;0.10;;
19846;SDS011;10084;50.518;8.588;2023-11-19T06:00:41;0.10;;;0.10;;
19846;SDS011;10084;50.518;8.588;2023-11-19T06:03:07;0.30;;;0.30;;
19846;SDS011;10084;50.518;8.588;2023-11-19T06:05:34;0.43;;;0.40;;
19846;SDS011;10084;50.518;8.588;2023-11-19T06:07:59;0.10;;;0.10;;
19846;SDS011;10084;50.518;8.588;2023-11-19T06:10:25;2.57;;;0.20;;
19846;SDS011;10084;50.518;8.588;2023-11-19T06:12:59;0.20;;;0.20;;
19846;SDS011;10084;50.518;8.588;2023-11-19T06:15:25;0.00;;;0.00;;
19846;SDS011;10084;50.518;8.588;2023-11-19T06:17:54;0.10;;;0.10;;
19846;SDS011;10084;50.518;8.588;2023-11-19T06:20:20;0.00;;;0.00;;
19846;SDS011;10084;50.518;8.588;2023-11-19T06:22:46;0.10;;;0.10;;
19846;SDS011;10084;50.518;8.588;2023-11-19T06:25:12;0.03;;;0.03;;
19846;SDS011;10084;50.518;8.588;2023-11-19T06:27:42;0.20;;;0.20;;
19846;SDS011;10084;50.518;8.588;2023-11-19T06:30:08;0.27;;;0.27;;
19846;SDS011;10084;50.518;8.588;2023-11-19T06:32:35;0.13;;;0.13;;
19846;SDS011;10084;50.518;8.588;2023-11-19T06:35:01;0.20;;;0.20;;
19846;SDS011;10084;50.518;8.588;2023-11-19T06:37:26;0.20;;;0.20;;
19846;SDS011;10084;50.518;8.588;2023-11-19T06:39:52;0.20;;;0.20;;
19846;SDS011;10084;50.518;8.588;2023-11-19T06:42:18;0.30;;;0.20;;
19846;SDS011;10084;50.518;8.588;2023-11-19T06:44:43;0.50;;;0.50;;
19846;SDS011;10084;50.518;8.588;2023-11-19T06:47:09;0.60;;;0.60;;
19846;SDS011;10084;50.518;8.588;2023-11-19T06:49:35;0.27;;;0.27;;
19846;SDS011;10084;50.518;8.588;2023-11-19T06:52:01;0.40;;;0.40;;
19846;SDS011;10084;50.518;8.588;2023-11-19T06:54:26;0.10;;;0.00;;
19846;SDS011;10084;50.518;8.588;2023-11-19T06:56:52;0.33;;;0.27;;
19846;SDS011;10084;50.518;8.588;2023-11-19T06:59:18;0.77;;;0.77;;
19846;SDS011;10084;50.518;8.588;2023-11-19T07:01:44;0.60;;;0.50;;
19846;SDS011;10084;50.518;8.588;2023-11-19T07:04:12;0.30;;;0.30;;
19846;SDS011;10084;50.518;8.588;2023-11-19T07:06:38;0.10;;;0.10;;
19846;SDS011;10084;50.518;8.588;2023-11-19T07:09:07;0.03;;;0.03;;
19846;SDS011;10084;50.518;8.588;2023-11-19T07:11:37;0.57;;;0.57;;
19846;SDS011;10084;50.518;8.588;2023-11-19T07:14:04;0.70;;;0.70;;
19846;SDS011;10084;50.518;8.588;2023-11-19T07:16:34;0.37;;;0.37;;
19846;SDS011;10084;50.518;8.588;2023-11-19T07:19:02;0.23;;;0.23;;
19846;SDS011;10084;50.518;8.588;2023-11-19T07:21:28;0.27;;;0.27;;
19846;SDS011;10084;50.518;8.588;2023-11-19T07:23:54;0.20;;;0.20;;
19846;SDS011;10084;50.518;8.588;2023-11-19T07:26:21;0.10;;;0.10;;
19846;SDS011;10084;50.518;8.588;2023-11-19T07:28:47;0.10;;;0.10;;
19846;SDS011;10084;50.518;8.588;2023-11-19T07:31:14;0.00;;;0.00;;
19846;SDS011;10084;50.518;8.588;2023-11-19T07:33:40;0.13;;;0.13;;
19846;SDS011;10084;50.518;8.588;2023-11-19T07:36:09;0.30;;;0.30;;
19846;SDS011;10084;50.518;8.588;2023-11-19T07:38:36;0.43;;;0.43;;
19846;SDS011;10084;50.518;8.588;2023-11-19T07:41:02;0.30;;;0.30;;
19846;SDS011;10084;50.518;8.588;2023-11-19T07:43:28;0.63;;;0.33;;
19846;SDS011;10084;50.518;8.588;2023-11-19T07:45:53;0.10;;;0.10;;
19846;SDS011;10084;50.518;8.588;2023-11-19T07:48:19;0.00;;;0.00;;
19846;SDS011;10084;50.518;8.588;2023-11-19T07:50:49;0.10;;;0.10;;
19846;SDS011;10084;50.518;8.588;2023-11-19T07:53:18;0.10;;;0.10;;
19846;SDS011;10084;50.518;8.588;2023-11-19T07:55:44;0.07;;;0.07;;
19846;SDS011;10084;50.518;8.588;2023-11-19T07:58:10;0.00;;;0.00;;
19846;SDS011;10084;50.518;8.588;2023-11-19T08:00:36;0.00;;;0.00;;
19846;SDS011;10084;50.518;8.588;2023-11-19T08:03:02;0.10;;;0.00;;
19846;SDS011;10084;50.518;8.588;2023-11-19T08:05:29;0.00;;;0.00;;
19846;SDS011;10084;50.518;8.588;2023-11-19T08:07:56;0.10;;;0.10;;
19846;SDS011;10084;50.518;8.588;2023-11-19T08:10:21;0.10;;;0.10;;
19846;SDS011;10084;50.518;8.588;2023-11-19T08:12:47;0.00;;;0.00;;
19846;SDS011;10084;50.518;8.588;2023-11-19T08:15:13;0.37;;;0.13;;
19846;SDS011;10084;50.518;8.588;2023-11-19T08:17:40;3.63;;;0.00;;
19846;SDS011;10084;50.518;8.588;2023-11-19T08:20:05;0.13;;;0.10;;
19846;SDS011;10084;50.518;8.588;2023-11-19T08:22:35;0.27;;;0.10;;
19846;SDS011;10084;50.518;8.588;2023-11-19T08:25:01;1.23;;;0.13;;
19846;SDS011;10084;50.518;8.588;2023-11-19T08:27:28;0.00;;;0.00;;
19846;SDS011;10084;50.518;8.588;2023-11-19T08:29:54;0.30;;;0.20;;
19846;SDS011;10084;50.518;8.588;2023-11-19T08:32:23;0.00;;;0.00;;
19846;SDS011;10084;50.518;8.588;2023-11-19T08:34:49;0.40;;;0.10;;
19846;SDS011;10084;50.518;8.588;2023-11-19T08:37:15;2.70;;;0.07;;
19846;SDS011;10084;50.518;8.588;2023-11-19T08:39:43;0.10;;;0.10;;
19846;SDS011;10084;50.518;8.588;2023-11-19T08:42:09;0.60;;;0.20;;
19846;SDS011;10084;50.518;8.588;2023-11-19T08:44:35;0.77;;;0.40;;
19846;SDS011;10084;50.518;8.588;2023-11-19T08:47:00;0.13;;;0.13;;
19846;SDS011;10084;50.518;8.588;2023-11-19T08:49:26;3.13;;;0.47;;
19846;SDS011;10084;50.518;8.588;2023-11-19T08:51:51;5.37;;;0.40;;
19846;SDS011;10084;50.518;8.588;2023-11-19T08:54:17;3.80;;;0.30;;
19846;SDS011;10084;50.518;8.588;2023-11-19T08:56:45;4.43;;;0.40;;
19846;SDS011;10084;50.518;8.588;2023-11-19T08:59:10;1.00;;;0.30;;
19846;SDS011;10084;50.518;8.588;2023-11-19T09:01:36;0.30;;;0.30;;
19846;SDS011;10084;50.518;8.588;2023-11-19T09:04:02;0.83;;;0.60;;
19846;SDS011;10084;50.518;8.588;2023-11-19T09:06:28;0.40;;;0.30;;
19846;SDS011;10084;50.518;8.588;2023-11-19T09:08:53;1.00;;;0.60;;
19846;SDS011;10084;50.518;8.588;2023-11-19T09:11:23;1.03;;;0.40;;
19846;SDS011;10084;50.518;8.588;2023-11-19T09:13:49;0.30;;;0.30;;
19846;SDS011;10084;50.518;8.588;2023-11-19T09:16:14;1.03;;;0.63;;
19846;SDS011;10084;50.518;8.588;2023-11-19T09:18:40;0.73;;;0.50;;
19846;SDS011;10084;50.518;8.588;2023-11-19T09:21:06;0.40;;;0.30;;
19846;SDS011;10084;50.518;8.588;2023-11-19T09:23:32;0.17;;;0.10;;
19846;SDS011;10084;50.518;8.588;2023-11-19T09:26:04;4.87;;;0.30;;
19846;SDS011;10084;50.518;8.588;2023-11-19T09:28:30;2.33;;;0.40;;
19846;SDS011;10084;50.518;8.588;2023-11-19T09:30:56;0.90;;;0.30;;
19846;SDS011;10084;50.518;8.588;2023-11-19T09:33:22;9.83;;;0.83;;
19846;SDS011;10084;50.518;8.588;2023-11-19T09:35:47;2.60;;;0.90;;
19846;SDS011;10084;50.518;8.588;2023-11-19T09:38:15;5.70;;;0.90;;
19846;SDS011;10084;50.518;8.588;2023-11-19T09:40:40;2.40;;;0.97;;
19846;SDS011;10084;50.518;8.588;2023-11-19T09:43:06;0.30;;;0.30;;
19846;SDS011;10084;50.518;8.588;2023-11-19T09:45:35;12.67;;;0.60;;
19846;SDS011;10084;50.518;8.588;2023-11-19T09:48:12;0.70;;;0.20;;
19846;SDS011;10084;50.518;8.588;2023-11-19T09:50:38;0.77;;;0.40;;
19846;SDS011;10084;50.518;8.588;2023-11-19T09:53:05;0.80;;;0.40;;
19846;SDS011;10084;50.518;8.588;2023-11-19T09:55:31;2.23;;;0.50;;
19846;SDS011;10084;50.518;8.588;2023-11-19T09:57:57;4.27;;;0.53;;
19846;SDS011;10084;50.518;8.588;2023-11-19T10:00:26;4.37;;;0.80;;
19846;SDS011;10084;50.518;8.588;2023-11-19T10:02:52;3.40;;;0.20;;
19846;SDS011;10084;50.518;8.588;2023-11-19T10:05:20;0.30;;;0.20;;
19846;SDS011;10084;50.518;8.588;2023-11-19T10:07:49;17.60;;;0.47;;
19846;SDS011;10084;50.518;8.588;2023-11-19T10:10:14;1.17;;;0.53;;
19846;SDS011;10084;50.518;8.588;2023-11-19T10:12:44;0.40;;;0.13;;
19846;SDS011;10084;50.518;8.588;2023-11-19T10:15:19;2.17;;;0.27;;
19846;SDS011;10084;50.518;8.588;2023-11-19T10:17:51;1.73;;;0.63;;
19846;SDS011;10084;50.518;8.588;2023-11-19T10:20:20;2.30;;;0.40;;
19846;SDS011;10084;50.518;8.588;2023-11-19T10:22:46;0.97;;;0.50;;
19846;SDS011;10084;50.518;8.588;2023-11-19T10:27:53;1.20;;;0.33;;
19846;SDS011;10084;50.518;8.588;2023-11-19T10:30:20;0.87;;;0.40;;
19846;SDS011;10084;50.518;8.588;2023-11-19T10:33:06;5.40;;;0.57;;
19846;SDS011;10084;50.518;8.588;2023-11-19T10:35:34;0.23;;;0.20;;
19846;SDS011;10084;50.518;8.588;2023-11-19T10:38:19;2.37;;;0.60;;
19846;SDS011;10084;50.518;8.588;2023-11-19T10:40:49;4.33;;;0.40;;
19846;SDS011;10084;50.518;8.588;2023-11-19T10:43:18;7.40;;;0.43;;
19846;SDS011;10084;50.518;8.588;2023-11-19T10:45:45;0.50;;;0.50;;
19846;SDS011;10084;50.518;8.588;2023-11-19T10:48:10;0.50;;;0.30;;
19846;SDS011;10084;50.518;8.588;2023-11-19T10:50:38;5.67;;;0.50;;
19846;SDS011;10084;50.518;8.588;2023-11-19T10:53:05;5.47;;;0.20;;
19846;SDS011;10084;50.518;8.588;2023-11-19T10:55:33;3.47;;;0.27;;
19846;SDS011;10084;50.518;8.588;2023-11-19T10:58:04;11.70;;;0.53;;
19846;SDS011;10084;50.518;8.588;2023-11-19T11:00:37;1.77;;;0.47;;
19846;SDS011;10084;50.518;8.588;2023-11-19T11:03:15;2.97;;;0.50;;
19846;SDS011;10084;50.518;8.588;2023-11-19T11:05:49;1.17;;;0.43;;
19846;SDS011;10084;50.518;8.588;2023-11-19T11:08:16;0.33;;;0.20;;
19846;SDS011;10084;50.518;8.588;2023-11-19T11:10:43;3.83;;;0.20;;
19846;SDS011;10084;50.518;8.588;2023-11-19T11:13:19;5.57;;;0.20;;
19846;SDS011;10084;50.518;8.588;2023-11-19T11:15:48;1.50;;;0.20;;
19846;SDS011;10084;50.518;8.588;2023-11-19T11:18:15;3.27;;;0.30;;
19846;SDS011;10084;50.518;8.588;2023-11-19T11:20:42;2.73;;;0.30;;
19846;SDS011;10084;50.518;8.588;2023-11-19T11:23:24;3.90;;;0.40;;
19846;SDS011;10084;50.518;8.588;2023-11-19T11:28:48;9.27;;;0.50;;
19846;SDS011;10084;50.518;8.588;2023-11-19T11:37:32;0.63;;;0.30;;
19846;SDS011;10084;50.518;8.588;2023-11-19T11:40:03;2.70;;;0.70;;
19846;SDS011;10084;50.518;8.588;2023-11-19T11:42:38;4.73;;;0.80;;
19846;SDS011;10084;50.518;8.588;2023-11-19T11:45:05;2.47;;;0.13;;
19846;SDS011;10084;50.518;8.588;2023-11-19T11:50:07;3.43;;;1.30;;
19846;SDS011;10084;50.518;8.588;2023-11-19T11:52:34;11.17;;;0.37;;
19846;SDS011;10084;50.518;8.588;2023-11-19T11:55:33;1.50;;;0.20;;
19846;SDS011;10084;50.518;8.588;2023-11-19T11:58:20;2.73;;;0.37;;
19846;SDS011;10084;50.518;8.588;2023-11-19T12:00:47;4.20;;;0.30;;
19846;SDS011;10084;50.518;8.588;2023-11-19T12:03:14;3.40;;;0.77;;
19846;SDS011;10084;50.518;8.588;2023-11-19T12:05:45;0.93;;;0.30;;
19846;SDS011;10084;50.518;8.588;2023-11-19T12:08:12;9.47;;;1.27;;
19846;SDS011;10084;50.518;8.588;2023-11-19T12:10:45;1.50;;;0.43;;
19846;SDS011;10084;50.518;8.588;2023-11-19T12:13:14;5.63;;;0.27;;
19846;SDS011;10084;50.518;8.588;2023-11-19T12:18:29;7.50;;;0.47;;
19846;SDS011;10084;50.518;8.588;2023-11-19T12:20:59;6.77;;;0.43;;
19846;SDS011;10084;50.518;8.588;2023-11-19T12:23:28;10.17;;;0.77;;
19846;SDS011;10084;50.518;8.588;2023-11-19T12:25:55;6.53;;;0.50;;
19846;SDS011;10084;50.518;8.588;2023-11-19T12:28:20;4.80;;;0.70;;
19846;SDS011;10084;50.518;8.588;2023-11-19T12:30:47;1.57;;;0.30;;
19846;SDS011;10084;50.518;8.588;2023-11-19T12:33:13;0.83;;;0.60;;
19846;SDS011;10084;50.518;8.588;2023-11-19T12:35:43;4.53;;;0.57;;
19846;SDS011;10084;50.518;8.588;2023-11-19T12:38:20;5.10;;;0.40;;
19846;SDS011;10084;50.518;8.588;2023-11-19T12:40:47;0.93;;;0.20;;
19846;SDS011;10084;50.518;8.588;2023-11-19T12:43:27;2.27;;;0.40;;
19846;SDS011;10084;50.518;8.588;2023-11-19T12:45:53;2.77;;;0.40;;
19846;SDS011;10084;50.518;8.588;2023-11-19T12:48:19;2.13;;;0.53;;
19846;SDS011;10084;50.518;8.588;2023-11-19T12:50:54;5.43;;;0.40;;
19846;SDS011;10084;50.518;8.588;2023-11-19T12:53:25;13.90;;;0.50;;
19846;SDS011;10084;50.518;8.588;2023-11-19T12:55:52;0.50;;;0.50;;
19846;SDS011;10084;50.518;8.588;2023-11-19T12:58:34;2.00;;;0.53;;
19846;SDS011;10084;50.518;8.588;2023-11-19T13:01:04;4.20;;;0.23;;
19846;SDS011;10084;50.518;8.588;2023-11-19T13:03:35;0.30;;;0.10;;
19846;SDS011;10084;50.518;8.588;2023-11-19T13:06:10;2.83;;;0.63;;
19846;SDS011;10084;50.518;8.588;2023-11-19T13:08:40;0.40;;;0.20;;
19846;SDS011;10084;50.518;8.588;2023-11-19T13:11:08;0.70;;;0.27;;
19846;SDS011;10084;50.518;8.588;2023-11-19T13:16:28;3.20;;;0.40;;
19846;SDS011;10084;50.518;8.588;2023-11-19T13:18:54;1.80;;;0.57;;
19846;SDS011;10084;50.518;8.588;2023-11-19T13:21:20;9.73;;;0.30;;
19846;SDS011;10084;50.518;8.588;2023-11-19T13:23:46;5.03;;;0.33;;
19846;SDS011;10084;50.518;8.588;2023-11-19T13:26:12;7.10;;;0.47;;
19846;SDS011;10084;50.518;8.588;2023-11-19T13:28:38;0.83;;;0.33;;
19846;SDS011;10084;50.518;8.588;2023-11-19T13:31:04;2.00;;;0.40;;
19846;SDS011;10084;50.518;8.588;2023-11-19T13:33:30;5.10;;;0.20;;
19846;SDS011;10084;50.518;8.588;2023-11-19T13:35:56;0.70;;;0.33;;
19846;SDS011;10084;50.518;8.588;2023-11-19T13:38:22;0.93;;;0.23;;
19846;SDS011;10084;50.518;8.588;2023-11-19T13:40:51;2.33;;;0.27;;
19846;SDS011;10084;50.518;8.588;2023-11-19T13:43:16;3.37;;;0.37;;
19846;SDS011;10084;50.518;8.588;2023-11-19T13:45:42;3.17;;;0.60;;
19846;SDS011;10084;50.518;8.588;2023-11-19T13:48:08;0.47;;;0.30;;
19846;SDS011;10084;50.518;8.588;2023-11-19T13:50:34;1.63;;;0.57;;
19846;SDS011;10084;50.518;8.588;2023-11-19T13:53:00;1.20;;;0.20;;
19846;SDS011;10084;50.518;8.588;2023-11-19T13:55:26;0.30;;;0.20;;
19846;SDS011;10084;50.518;8.588;2023-11-19T13:57:52;5.67;;;0.53;;
19846;SDS011;10084;50.518;8.588;2023-11-19T14:00:17;0.87;;;0.50;;
19846;SDS011;10084;50.518;8.588;2023-11-19T14:02:44;0.30;;;0.30;;
19846;SDS011;10084;50.518;8.588;2023-11-19T14:05:11;2.23;;;0.30;;
19846;SDS011;10084;50.518;8.588;2023-11-19T14:07:38;9.33;;;0.37;;
19846;SDS011;10084;50.518;8.588;2023-11-19T14:10:05;3.57;;;0.50;;
19846;SDS011;10084;50.518;8.588;2023-11-19T14:12:32;0.47;;;0.43;;
19846;SDS011;10084;50.518;8.588;2023-11-19T14:14:58;0.70;;;0.40;;
19846;SDS011;10084;50.518;8.588;2023-11-19T14:17:25;0.40;;;0.40;;
19846;SDS011;10084;50.518;8.588;2023-11-19T14:19:50;2.10;;;0.30;;
19846;SDS011;10084;50.518;8.588;2023-11-19T14:22:16;2.23;;;0.20;;
19846;SDS011;10084;50.518;8.588;2023-11-19T14:24:42;0.97;;;0.27;;
19846;SDS011;10084;50.518;8.588;2023-11-19T14:27:11;5.87;;;0.30;;
19846;SDS011;10084;50.518;8.588;2023-11-19T14:29:37;3.27;;;0.43;;
19846;SDS011;10084;50.518;8.588;2023-11-19T14:32:03;0.60;;;0.30;;
19846;SDS011;10084;50.518;8.588;2023-11-19T14:34:29;1.77;;;0.73;;
19846;SDS011;10084;50.518;8.588;2023-11-19T14:36:56;3.43;;;0.93;;
19846;SDS011;10084;50.518;8.588;2023-11-19T14:39:22;2.90;;;0.70;;
19846;SDS011;10084;50.518;8.588;2023-11-19T14:41:47;5.07;;;0.30;;
19846;SDS011;10084;50.518;8.588;2023-11-19T14:44:14;1.17;;;0.87;;
19846;SDS011;10084;50.518;8.588;2023-11-19T14:46:40;2.33;;;0.50;;
19846;SDS011;10084;50.518;8.588;2023-11-19T14:49:06;4.20;;;2.87;;
19846;SDS011;10084;50.518;8.588;2023-11-19T14:51:35;4.87;;;3.07;;
19846;SDS011;10084;50.518;8.588;2023-11-19T14:54:03;12.47;;;1.30;;
19846;SDS011;10084;50.518;8.588;2023-11-19T14:56:29;1.50;;;0.40;;
19846;SDS011;10084;50.518;8.588;2023-11-19T14:58:55;4.00;;;0.50;;
19846;SDS011;10084;50.518;8.588;2023-11-19T15:01:20;2.63;;;0.27;;
19846;SDS011;10084;50.518;8.588;2023-11-19T15:03:46;1.07;;;0.67;;
19846;SDS011;10084;50.518;8.588;2023-11-19T15:06:12;8.97;;;0.70;;
19846;SDS011;10084;50.518;8.588;2023-11-19T15:08:38;1.10;;;0.53;;